createdAt,value
2023-04-23T00:00:58.609Z,15.48
2023-04-23T00:03:34.782Z,14.93
2023-04-23T00:06:17.388Z,12.73
2023-04-23T00:08:57.498Z,14.15
2023-04-23T00:11:37.579Z,13.90
2023-04-23T00:14:12.292Z,12.15
2023-04-23T00:16:52.316Z,14.75
2023-04-23T00:19:30.492Z,13.38
2023-04-23T00:22:14.072Z,14.45
2023-04-23T00:24:54.933Z,14.05
2023-04-23T00:27:38.189Z,15.63
2023-04-23T00:30:18.939Z,18.35
2023-04-23T00:32:59.394Z,21.40
2023-04-23T00:35:36.577Z,17.30
2023-04-23T00:38:21.412Z,18.48
2023-04-23T00:41:02.453Z,16.17
2023-04-23T00:43:41.014Z,17.58
2023-04-23T00:46:12.760Z,20.67
2023-04-23T00:48:52.478Z,18.42
2023-04-23T00:51:34.993Z,16.90
2023-04-23T00:54:24.269Z,17.00
2023-04-23T00:57:08.079Z,17.02
2023-04-23T00:59:50.427Z,17.65
2023-04-23T01:02:29.448Z,18.77
2023-04-23T01:05:09.378Z,23.48
2023-04-23T01:07:58.698Z,22.20
2023-04-23T01:10:39.512Z,27.35
2023-04-23T01:13:29.853Z,32.30
2023-04-23T01:16:03.443Z,36.72
2023-04-23T01:18:41.164Z,37.42
2023-04-23T01:21:20.501Z,40.80
2023-04-23T01:23:58.853Z,38.63
2023-04-23T01:26:34.240Z,36.83
2023-04-23T01:29:14.155Z,35.58
2023-04-23T01:31:49.788Z,36.45
2023-04-23T01:34:37.112Z,36.78
2023-04-23T01:37:18.984Z,36.03
2023-04-23T01:39:55.426Z,38.22
2023-04-23T01:42:30.718Z,34.58
2023-04-23T01:45:03.346Z,37.50
2023-04-23T01:47:41.437Z,37.95
2023-04-23T01:50:18.426Z,31.25
2023-04-23T01:52:56.203Z,28.65
2023-04-23T01:55:36.960Z,28.30
2023-04-23T01:58:29.841Z,28.27
2023-04-23T02:01:09.104Z,29.50
2023-04-23T02:03:47.190Z,29.13
2023-04-23T02:06:27.995Z,32.90
2023-04-23T02:09:03.266Z,27.67
2023-04-23T02:11:48.184Z,34.88
2023-04-23T02:14:30.054Z,28.27
2023-04-23T02:17:06.918Z,30.05
2023-04-23T02:19:55.441Z,27.15
2023-04-23T02:22:39.359Z,31.88
2023-04-23T02:25:22.090Z,33.38
2023-04-23T02:28:07.308Z,32.88
2023-04-23T02:30:47.939Z,31.73
2023-04-23T02:33:30.641Z,35.28
2023-04-23T02:36:10.746Z,32.80
2023-04-23T02:38:57.566Z,29.48
2023-04-23T02:41:37.531Z,26.77
2023-04-23T02:44:15.872Z,28.63
2023-04-23T02:46:57.214Z,33.58
2023-04-23T02:49:38.082Z,31.27
2023-04-23T02:52:16.729Z,30.00
2023-04-23T02:54:52.369Z,28.45
2023-04-23T02:57:31.641Z,24.67
2023-04-23T03:00:15.259Z,27.48
2023-04-23T03:02:49.084Z,25.75
2023-04-23T03:05:28.819Z,26.92
2023-04-23T03:08:04.348Z,27.17
2023-04-23T03:10:50.702Z,30.45
2023-04-23T03:13:28.541Z,31.92
2023-04-23T03:16:12.548Z,27.60
2023-04-23T03:18:52.924Z,29.50
2023-04-23T03:21:33.840Z,32.30
2023-04-23T03:24:20.914Z,34.25
2023-04-23T03:27:03.162Z,33.83
2023-04-23T03:29:41.444Z,32.13
2023-04-23T03:32:25.841Z,34.65
2023-04-23T03:35:12.906Z,36.78
2023-04-23T03:37:52.362Z,36.22
2023-04-23T03:40:36.370Z,40.80
2023-04-23T03:43:15.270Z,34.78
2023-04-23T03:46:16.261Z,36.42
2023-04-23T03:49:02.483Z,32.08
2023-04-23T03:54:18.691Z,31.63
2023-04-23T03:57:07.654Z,32.15
2023-04-23T04:00:08.443Z,27.55
2023-04-23T04:03:02.451Z,26.13
2023-04-23T04:05:44.815Z,23.80
2023-04-23T04:08:30.875Z,23.63
2023-04-23T04:11:09.712Z,24.42
2023-04-23T04:13:53.278Z,23.08
2023-04-23T04:16:37.213Z,22.45
2023-04-23T04:19:16.135Z,25.60
2023-04-23T04:22:03.269Z,30.02
2023-04-23T04:24:46.021Z,33.60
2023-04-23T04:27:24.488Z,34.85
2023-04-23T04:32:52.359Z,31.02
2023-04-23T04:35:32.581Z,35.25
2023-04-23T04:38:17.347Z,35.15
2023-04-23T04:40:53.225Z,32.70
2023-04-23T04:43:36.859Z,36.00
2023-04-23T04:46:20.873Z,35.00
2023-04-23T04:48:59.341Z,34.63
2023-04-23T04:51:41.960Z,32.97
2023-04-23T04:54:22.625Z,28.52
2023-04-23T04:57:06.644Z,25.50
2023-04-23T04:59:55.288Z,15.35
2023-04-23T05:02:38.724Z,18.35
2023-04-23T05:05:14.114Z,19.80
2023-04-23T05:07:59.363Z,15.68
2023-04-23T05:10:39.406Z,14.52
2023-04-23T05:13:15.686Z,13.90
2023-04-23T05:16:02.994Z,12.98
2023-04-23T05:18:46.314Z,12.32
2023-04-23T05:21:27.565Z,13.88
2023-04-23T05:24:11.345Z,13.48
2023-04-23T05:26:55.094Z,13.13
2023-04-23T05:29:46.769Z,11.60
2023-04-23T05:32:19.753Z,10.80
2023-04-23T05:35:03.125Z,11.00
2023-04-23T05:37:41.336Z,9.95
2023-04-23T05:40:13.951Z,9.82
2023-04-23T05:42:57.792Z,9.68
2023-04-23T05:45:43.966Z,9.63
2023-04-23T05:48:25.729Z,9.85
2023-04-23T05:51:05.695Z,8.20
2023-04-23T05:53:49.321Z,8.25
2023-04-23T05:56:34.720Z,8.48
2023-04-23T05:59:09.917Z,8.70
2023-04-23T06:01:56.656Z,8.25
2023-04-23T06:07:33.544Z,8.70
2023-04-23T06:10:19.615Z,8.25
2023-04-23T06:12:55.933Z,8.57
2023-04-23T06:15:33.485Z,7.88
2023-04-23T06:18:24.154Z,9.13
2023-04-23T06:21:13.704Z,7.85
2023-04-23T06:23:54.674Z,7.35
2023-04-23T06:26:35.426Z,7.75
2023-04-23T06:29:28.377Z,8.18
2023-04-23T06:32:14.903Z,7.65
2023-04-23T06:35:01.500Z,7.55
2023-04-23T06:37:48.140Z,7.88
2023-04-23T06:40:31.389Z,7.68
2023-04-23T06:43:14.814Z,7.35
2023-04-23T06:46:19.700Z,8.45
2023-04-23T06:49:01.398Z,7.63
2023-04-23T06:51:40.028Z,7.82
2023-04-23T06:54:19.359Z,7.30
2023-04-23T06:56:57.031Z,8.10
2023-04-23T06:59:41.995Z,7.72
2023-04-23T07:02:21.251Z,8.18
2023-04-23T07:05:07.689Z,7.40
2023-04-23T07:07:42.869Z,7.80
2023-04-23T07:10:23.819Z,7.13
2023-04-23T07:13:05.050Z,7.18
2023-04-23T07:15:49.422Z,7.20
2023-04-23T07:18:30.273Z,7.10
2023-04-23T07:21:16.395Z,6.53
2023-04-23T07:23:54.558Z,7.40
2023-04-23T07:26:30.068Z,6.78
2023-04-23T07:29:09.740Z,6.63
2023-04-23T07:32:00.809Z,7.07
2023-04-23T07:34:38.740Z,6.90
2023-04-23T07:37:27.018Z,6.75
2023-04-23T07:40:05.818Z,6.47
2023-04-23T07:42:44.766Z,6.80
2023-04-23T07:45:20.415Z,5.78
2023-04-23T07:47:59.677Z,6.40
2023-04-23T07:50:37.362Z,5.80
2023-04-23T07:53:09.573Z,6.70
2023-04-23T07:56:00.021Z,6.05
2023-04-23T07:58:48.484Z,5.47
2023-04-23T08:01:18.503Z,5.20
2023-04-23T08:03:59.779Z,5.65
2023-04-23T08:06:35.676Z,5.97
2023-04-23T08:09:13.368Z,5.13
2023-04-23T08:11:49.521Z,5.38
2023-04-23T08:14:24.885Z,4.95
2023-04-23T08:17:03.391Z,4.95
2023-04-23T08:19:35.868Z,4.82
2023-04-23T08:22:13.688Z,5.15
2023-04-23T08:24:55.443Z,5.30
2023-04-23T08:27:28.553Z,5.05
2023-04-23T08:30:06.968Z,5.40
2023-04-23T08:32:47.324Z,5.60
2023-04-23T08:35:23.245Z,5.00
2023-04-23T08:38:00.321Z,5.15
2023-04-23T08:40:45.324Z,5.05
2023-04-23T08:43:29.205Z,4.38
2023-04-23T08:48:44.573Z,5.15
2023-04-23T08:51:28.007Z,5.28
2023-04-23T08:54:13.328Z,5.53
2023-04-23T08:56:51.436Z,4.53
2023-04-23T08:59:36.668Z,4.75
2023-04-23T09:02:12.648Z,4.88
2023-04-23T09:04:51.868Z,4.88
2023-04-23T09:07:49.757Z,4.72
2023-04-23T09:10:31.384Z,4.78
2023-04-23T09:13:05.460Z,4.30
2023-04-23T09:15:43.597Z,5.22
2023-04-23T09:18:23.986Z,4.38
2023-04-23T09:21:09.768Z,4.75
2023-04-23T09:23:51.445Z,4.82
2023-04-23T09:26:32.212Z,4.55
2023-04-23T09:29:17.545Z,4.80
2023-04-23T09:31:58.904Z,4.78
2023-04-23T09:34:37.411Z,4.95
2023-04-23T09:37:13.386Z,4.47
2023-04-23T09:39:48.340Z,4.60
2023-04-23T09:42:24.463Z,4.15
2023-04-23T09:45:16.028Z,4.45
2023-04-23T09:47:55.599Z,4.22
2023-04-23T09:50:39.045Z,4.28
2023-04-23T09:53:18.808Z,3.90
2023-04-23T09:55:58.369Z,3.83
2023-04-23T09:58:31.768Z,3.53
2023-04-23T10:01:16.119Z,3.97
2023-04-23T10:03:59.683Z,4.30
2023-04-23T10:06:42.441Z,3.75
2023-04-23T10:09:31.972Z,3.88
2023-04-23T10:12:20.770Z,3.72
2023-04-23T10:15:08.084Z,4.55
2023-04-23T10:17:51.582Z,4.05
2023-04-23T10:20:42.684Z,3.70
2023-04-23T10:23:17.513Z,4.10
2023-04-23T10:25:56.342Z,4.18
2023-04-23T10:28:39.354Z,3.78
2023-04-23T10:31:20.143Z,3.80
2023-04-23T10:34:02.145Z,3.53
2023-04-23T10:36:50.032Z,4.32
2023-04-23T10:39:35.171Z,3.83
2023-04-23T10:42:13.953Z,3.95
2023-04-23T10:45:16.573Z,3.60
2023-04-23T10:47:59.424Z,3.45
2023-04-23T10:51:00.313Z,3.85
2023-04-23T10:53:40.765Z,3.60
2023-04-23T10:56:18.347Z,3.67
2023-04-23T10:58:59.619Z,3.78
2023-04-23T11:01:41.634Z,3.65
2023-04-23T11:04:29.883Z,3.58
2023-04-23T11:07:08.411Z,4.00
2023-04-23T11:09:53.651Z,3.75
2023-04-23T11:12:33.389Z,3.47
2023-04-23T11:15:26.352Z,3.55
2023-04-23T11:18:05.430Z,4.07
2023-04-23T11:20:38.069Z,3.88
2023-04-23T11:23:34.888Z,3.80
2023-04-23T11:26:07.739Z,3.80
2023-04-23T11:28:45.441Z,3.72
2023-04-23T11:31:26.596Z,3.75
2023-04-23T11:34:01.844Z,3.60
2023-04-23T11:36:37.535Z,4.00
2023-04-23T11:39:22.401Z,3.90
2023-04-23T11:42:05.468Z,4.13
2023-04-23T11:44:41.368Z,3.67
2023-04-23T11:47:19.009Z,3.65
2023-04-23T11:49:55.402Z,3.20
2023-04-23T11:52:36.336Z,4.13
2023-04-23T11:55:13.032Z,3.05
2023-04-23T11:57:51.093Z,3.70
2023-04-23T12:00:25.433Z,3.72
2023-04-23T12:03:01.937Z,3.35
2023-04-23T12:05:37.457Z,3.67
2023-04-23T12:08:22.820Z,3.58
2023-04-23T12:11:21.406Z,3.50
2023-04-23T12:13:56.573Z,3.20
2023-04-23T12:16:44.750Z,3.27
2023-04-23T12:19:31.632Z,3.30
2023-04-23T12:22:12.319Z,3.70
2023-04-23T12:24:54.545Z,3.67
2023-04-23T12:27:38.958Z,3.50
2023-04-23T12:30:15.387Z,3.95
2023-04-23T12:33:03.682Z,4.10
2023-04-23T12:35:58.282Z,3.88
2023-04-23T12:38:31.647Z,3.80
2023-04-23T12:41:15.089Z,3.60
2023-04-23T12:43:59.336Z,3.60
2023-04-23T12:46:34.537Z,3.47
2023-04-23T12:49:15.418Z,3.38
2023-04-23T12:51:53.364Z,3.58
2023-04-23T12:54:23.142Z,4.07
2023-04-23T12:56:57.400Z,3.67
2023-04-23T12:59:45.729Z,3.83
2023-04-23T13:02:21.666Z,3.72
2023-04-23T13:05:02.537Z,3.58
2023-04-23T13:07:43.796Z,3.58
2023-04-23T13:13:10.117Z,3.28
2023-04-23T13:15:45.549Z,3.00
2023-04-23T13:18:18.538Z,3.40
2023-04-23T13:20:59.438Z,3.22
2023-04-23T13:23:48.813Z,3.40
2023-04-23T13:26:34.851Z,3.10
2023-04-23T13:29:07.226Z,3.92
2023-04-23T13:31:39.652Z,3.38
2023-04-23T13:34:21.533Z,3.33
2023-04-23T13:36:52.924Z,4.13
2023-04-23T13:39:31.214Z,3.40
2023-04-23T13:42:10.333Z,3.38
2023-04-23T13:44:48.803Z,3.78
2023-04-23T13:47:32.406Z,2.95
2023-04-23T13:50:13.586Z,3.25
2023-04-23T13:52:59.294Z,3.15
2023-04-23T13:55:36.437Z,2.67
2023-04-23T13:58:12.339Z,3.47
2023-04-23T14:00:49.414Z,3.10
2023-04-23T14:03:24.702Z,3.28
2023-04-23T14:06:02.509Z,3.38
2023-04-23T14:08:41.639Z,3.60
2023-04-23T14:11:27.539Z,3.28
2023-04-23T14:14:03.385Z,3.63
2023-04-23T14:16:43.206Z,3.70
2023-04-23T14:19:32.884Z,3.20
2023-04-23T14:22:10.718Z,3.85
2023-04-23T14:25:25.542Z,3.80
2023-04-23T14:28:07.713Z,3.63
2023-04-23T14:30:48.440Z,3.30
2023-04-23T14:33:26.062Z,3.50
2023-04-23T14:36:06.795Z,3.53
2023-04-23T14:38:38.048Z,3.88
2023-04-23T14:41:18.725Z,3.53
2023-04-23T14:43:56.660Z,4.00
2023-04-23T14:46:34.803Z,4.10
2023-04-23T14:49:21.516Z,3.40
2023-04-23T14:52:02.436Z,3.40
2023-04-23T14:54:43.329Z,3.40
2023-04-23T14:57:20.796Z,3.40
2023-04-23T15:00:03.929Z,3.25
2023-04-23T15:02:46.375Z,3.53
2023-04-23T15:05:31.470Z,3.17
2023-04-23T15:08:13.156Z,4.00
2023-04-23T15:10:48.646Z,3.92
2023-04-23T15:13:48.942Z,3.65
2023-04-23T15:19:18.225Z,3.67
2023-04-23T15:22:03.221Z,3.13
2023-04-23T15:24:46.715Z,3.53
2023-04-23T15:27:27.570Z,3.65
2023-04-23T15:32:51.563Z,3.03
2023-04-23T15:35:44.827Z,3.08
2023-04-23T15:38:23.403Z,3.40
2023-04-23T15:41:04.120Z,3.53
2023-04-23T15:43:41.835Z,3.63
2023-04-23T15:46:22.486Z,3.58
2023-04-23T15:49:03.805Z,3.15
2023-04-23T15:51:45.212Z,3.40
2023-04-23T15:54:20.764Z,3.50
2023-04-23T15:57:01.778Z,3.42
2023-04-23T15:59:39.638Z,4.25
2023-04-23T16:02:27.350Z,3.30
2023-04-23T16:05:05.475Z,3.15
2023-04-23T16:07:44.486Z,4.28
2023-04-23T16:10:23.678Z,3.63
2023-04-23T16:12:59.722Z,3.10
2023-04-23T16:15:41.765Z,3.65
2023-04-23T16:18:26.018Z,3.10
2023-04-23T16:21:01.682Z,2.90
2023-04-23T16:23:40.460Z,3.15
2023-04-23T16:26:20.962Z,3.35
2023-04-23T16:31:44.637Z,3.58
2023-04-23T16:34:23.272Z,3.60
2023-04-23T16:37:01.042Z,4.30
2023-04-23T16:39:44.524Z,3.75
2023-04-23T16:42:31.737Z,3.65
2023-04-23T16:45:10.612Z,3.75
2023-04-23T16:48:03.984Z,3.92
2023-04-23T16:50:46.313Z,3.75
2023-04-23T16:53:44.111Z,4.55
2023-04-23T16:56:25.642Z,4.18
2023-04-23T16:59:06.052Z,4.25
2023-04-23T17:01:54.564Z,4.45
2023-04-23T17:04:36.371Z,4.25
2023-04-23T17:07:15.353Z,4.25
2023-04-23T17:09:52.953Z,5.93
2023-04-23T17:12:43.550Z,5.40
2023-04-23T17:15:24.412Z,5.47
2023-04-23T17:18:02.695Z,4.20
2023-04-23T17:20:39.349Z,4.25
2023-04-23T17:23:20.899Z,5.15
2023-04-23T17:25:59.434Z,4.65
2023-04-23T17:28:32.410Z,4.85
2023-04-23T17:31:14.306Z,4.70
2023-04-23T17:33:56.294Z,4.15
2023-04-23T17:36:40.131Z,4.65
2023-04-23T17:39:23.726Z,4.43
2023-04-23T17:42:02.382Z,5.80
2023-04-23T17:44:41.908Z,5.40
2023-04-23T17:47:27.765Z,8.30
2023-04-23T17:50:06.427Z,5.70
2023-04-23T17:52:47.811Z,6.25
2023-04-23T17:55:35.552Z,6.75
2023-04-23T17:58:15.851Z,6.47
2023-04-23T18:00:56.069Z,6.63
2023-04-23T18:03:42.961Z,6.85
2023-04-23T18:06:23.842Z,5.85
2023-04-23T18:09:01.624Z,5.70
2023-04-23T18:11:51.452Z,5.70
2023-04-23T18:14:32.763Z,5.90
2023-04-23T18:17:08.647Z,6.50
2023-04-23T18:19:41.762Z,6.47
2023-04-23T18:22:32.553Z,6.45
2023-04-23T18:25:31.798Z,6.40
2023-04-23T18:28:13.709Z,6.60
2023-04-23T18:30:56.597Z,6.60
2023-04-23T18:33:40.502Z,7.25
2023-04-23T18:36:28.340Z,7.28
2023-04-23T18:39:07.037Z,7.82
2023-04-23T18:41:47.345Z,6.38
2023-04-23T18:44:37.862Z,5.70
2023-04-23T18:47:18.566Z,5.63
2023-04-23T18:50:24.943Z,5.77
2023-04-23T18:53:07.630Z,5.35
2023-04-23T18:55:49.441Z,6.07
2023-04-23T18:58:29.106Z,6.72
2023-04-23T19:01:06.086Z,6.32
2023-04-23T19:03:56.600Z,7.05
2023-04-23T19:06:41.101Z,9.02
2023-04-23T19:09:25.719Z,9.00
2023-04-23T19:12:05.848Z,8.63
2023-04-23T19:14:48.694Z,9.25
2023-04-23T19:17:29.685Z,8.98
2023-04-23T19:20:15.855Z,8.55
2023-04-23T19:22:57.191Z,9.35
2023-04-23T19:25:45.900Z,9.15
2023-04-23T19:28:29.705Z,8.93
2023-04-23T19:31:12.590Z,8.35
2023-04-23T19:33:59.386Z,8.80
2023-04-23T19:36:41.711Z,9.00
2023-04-23T19:39:36.350Z,10.00
2023-04-23T19:42:25.207Z,9.38
2023-04-23T19:45:03.877Z,9.88
2023-04-23T19:47:46.345Z,9.68
2023-04-23T19:50:41.170Z,10.65
2023-04-23T19:53:25.686Z,7.47
2023-04-23T19:58:53.838Z,8.05
2023-04-23T20:01:40.971Z,8.30
2023-04-23T20:04:15.993Z,7.95
2023-04-23T20:07:01.557Z,7.28
2023-04-23T20:09:40.427Z,7.20
2023-04-23T20:12:15.897Z,7.18
2023-04-23T20:15:04.369Z,7.22
2023-04-23T20:17:59.824Z,7.20
2023-04-23T20:20:37.340Z,7.82
2023-04-23T20:23:18.004Z,8.52
2023-04-23T20:26:04.757Z,8.43
2023-04-23T20:31:21.210Z,8.18
2023-04-23T20:33:59.464Z,7.10
2023-04-23T20:36:43.375Z,7.53
2023-04-23T20:39:24.265Z,7.82
2023-04-23T20:44:45.685Z,7.88
2023-04-23T20:47:31.972Z,6.63
2023-04-23T20:50:17.862Z,7.25
2023-04-23T20:52:55.985Z,7.50
2023-04-23T20:55:37.323Z,6.38
2023-04-23T20:58:23.176Z,7.03
2023-04-23T21:01:18.566Z,5.22
2023-04-23T21:04:07.822Z,6.38
2023-04-23T21:06:43.134Z,6.25
2023-04-23T21:09:23.832Z,7.15
2023-04-23T21:12:06.056Z,7.97
2023-04-23T21:14:45.407Z,8.88
2023-04-23T21:17:22.931Z,7.93
2023-04-23T21:20:12.064Z,8.55
2023-04-23T21:22:59.323Z,7.47
2023-04-23T21:28:10.770Z,7.53
2023-04-23T21:30:56.629Z,7.30
2023-04-23T21:33:38.714Z,9.10
2023-04-23T21:36:11.096Z,8.10
2023-04-23T21:38:48.899Z,9.18
2023-04-23T21:41:26.602Z,8.02
2023-04-23T21:44:08.438Z,7.90
2023-04-23T21:46:51.858Z,8.70
2023-04-23T21:49:32.477Z,8.02
2023-04-23T21:52:19.728Z,8.47
2023-04-23T21:55:15.997Z,8.25
2023-04-23T21:57:56.466Z,7.70
2023-04-23T22:00:40.719Z,8.18
2023-04-23T22:03:27.667Z,8.77
2023-04-23T22:06:13.534Z,9.00
2023-04-23T22:08:49.053Z,9.52
2023-04-23T22:11:31.834Z,9.65
2023-04-23T22:14:10.454Z,8.52
2023-04-23T22:16:46.360Z,8.93
2023-04-23T22:19:27.112Z,8.65
2023-04-23T22:22:07.340Z,8.00
2023-04-23T22:24:48.712Z,7.53
2023-04-23T22:27:34.871Z,8.23
2023-04-23T22:30:16.608Z,7.70
2023-04-23T22:32:48.899Z,7.93
2023-04-23T22:35:28.928Z,7.43
2023-04-23T22:38:09.649Z,9.00
2023-04-23T22:40:47.388Z,7.28
2023-04-23T22:43:26.332Z,7.68
2023-04-23T22:46:05.379Z,7.72
2023-04-23T22:48:44.922Z,7.82
2023-04-23T22:51:25.117Z,7.82
2023-04-23T22:54:11.820Z,8.02
2023-04-23T22:56:49.960Z,8.52
2023-04-23T22:59:33.398Z,8.55
2023-04-23T23:02:14.254Z,8.98
2023-04-23T23:04:54.996Z,9.55
2023-04-23T23:07:32.068Z,9.70
2023-04-23T23:10:21.526Z,8.68
2023-04-23T23:13:03.294Z,9.02
2023-04-23T23:15:52.583Z,8.73
2023-04-23T23:18:33.325Z,9.73
2023-04-23T23:21:17.521Z,9.98
2023-04-23T23:24:00.138Z,9.57
2023-04-23T23:26:37.851Z,9.70
2023-04-23T23:29:13.218Z,9.10
2023-04-23T23:31:51.688Z,8.93
2023-04-23T23:34:27.673Z,8.52
2023-04-23T23:37:11.289Z,9.52
2023-04-23T23:39:50.386Z,7.97
2023-04-23T23:42:45.665Z,9.82
2023-04-23T23:45:21.476Z,9.25
2023-04-23T23:48:19.826Z,9.32
2023-04-23T23:50:58.578Z,9.10
2023-04-23T23:53:45.412Z,8.90
2023-04-23T23:56:19.376Z,8.30
2023-04-23T23:58:59.996Z,9.48
